createdAt,value
2022-10-20T00:00:01.844Z,6.18
2022-10-20T00:01:03.484Z,4.40
2022-10-20T00:02:06.051Z,4.90
2022-10-20T00:03:07.608Z,5.60
2022-10-20T00:04:10.157Z,6.10
2022-10-20T00:05:11.889Z,4.65
2022-10-20T00:06:16.769Z,4.43
2022-10-20T00:07:18.310Z,4.57
2022-10-20T00:08:20.873Z,10.18
2022-10-20T00:09:24.021Z,6.88
2022-10-20T00:10:26.897Z,6.07
2022-10-20T00:11:29.105Z,6.50
2022-10-20T00:12:31.632Z,4.68
2022-10-20T00:13:35.428Z,4.80
2022-10-20T00:14:39.282Z,4.13
2022-10-20T00:15:40.937Z,4.47
2022-10-20T00:16:43.526Z,3.10
2022-10-20T00:17:45.081Z,4.28
2022-10-20T00:18:47.909Z,4.57
2022-10-20T00:19:50.640Z,3.92
2022-10-20T00:20:52.711Z,4.47
2022-10-20T00:21:55.248Z,4.78
2022-10-20T00:22:57.194Z,5.65
2022-10-20T00:24:00.486Z,3.90
2022-10-20T00:25:03.741Z,6.68
2022-10-20T00:26:09.089Z,5.30
2022-10-20T00:27:10.728Z,7.07
2022-10-20T00:28:13.264Z,5.10
2022-10-20T00:29:14.849Z,4.82
2022-10-20T00:30:18.169Z,4.03
2022-10-20T00:31:22.286Z,3.95
2022-10-20T00:32:24.845Z,5.85
2022-10-20T00:33:26.839Z,7.53
2022-10-20T00:34:29.352Z,5.55
2022-10-20T00:35:30.929Z,5.30
2022-10-20T00:36:33.526Z,5.22
2022-10-20T00:37:35.112Z,5.82
2022-10-20T00:38:37.724Z,3.88
2022-10-20T00:39:39.383Z,6.18
2022-10-20T00:40:43.238Z,7.82
2022-10-20T00:41:44.778Z,5.03
2022-10-20T00:42:47.729Z,4.03
2022-10-20T00:43:50.995Z,5.32
2022-10-20T00:44:56.666Z,4.22
2022-10-20T00:45:58.184Z,4.22
2022-10-20T00:47:00.682Z,5.28
2022-10-20T00:48:06.274Z,3.97
2022-10-20T00:49:15.367Z,6.10
2022-10-20T00:50:19.312Z,7.18
2022-10-20T00:51:24.355Z,6.72
2022-10-20T00:52:25.905Z,6.40
2022-10-20T00:53:30.143Z,6.18
2022-10-20T00:54:31.888Z,4.85
2022-10-20T00:55:36.099Z,4.65
2022-10-20T00:56:42.490Z,3.83
2022-10-20T00:57:47.972Z,6.30
2022-10-20T00:58:49.889Z,5.15
2022-10-20T00:59:52.469Z,5.18
2022-10-20T01:00:57.028Z,4.57
2022-10-20T01:02:00.810Z,6.57
2022-10-20T01:03:02.755Z,5.50
2022-10-20T01:04:05.708Z,4.90
2022-10-20T01:05:08.600Z,5.53
2022-10-20T01:06:11.176Z,4.28
2022-10-20T01:07:12.825Z,5.00
2022-10-20T01:08:15.351Z,8.18
2022-10-20T01:09:16.964Z,5.95
2022-10-20T01:10:20.125Z,8.15
2022-10-20T01:11:28.498Z,7.45
2022-10-20T01:12:38.934Z,5.18
2022-10-20T01:14:00.882Z,5.10
2022-10-20T01:15:09.464Z,4.47
2022-10-20T01:16:14.635Z,5.53
2022-10-20T01:17:25.222Z,6.03
2022-10-20T01:18:31.186Z,7.38
2022-10-20T01:20:00.462Z,5.07
2022-10-20T01:21:22.501Z,4.55
2022-10-20T01:22:38.041Z,5.95
2022-10-20T01:24:15.667Z,5.00
2022-10-20T01:25:20.441Z,7.65
2022-10-20T01:26:45.339Z,6.53
2022-10-20T01:27:48.648Z,7.15
2022-10-20T01:28:54.972Z,7.13
2022-10-20T01:30:01.978Z,5.65
2022-10-20T01:31:12.056Z,5.05
2022-10-20T01:32:19.615Z,7.28
2022-10-20T01:34:40.187Z,6.47
2022-10-20T01:35:54.124Z,8.27
2022-10-20T01:36:57.992Z,6.82
2022-10-20T01:38:07.585Z,8.57
2022-10-20T01:39:13.815Z,6.13
2022-10-20T01:40:22.357Z,7.68
2022-10-20T01:41:28.462Z,5.68
2022-10-20T01:42:30.081Z,6.35
2022-10-20T01:43:36.773Z,7.05
2022-10-20T01:44:38.998Z,8.55
2022-10-20T01:45:44.978Z,7.60
2022-10-20T01:46:46.931Z,8.27
2022-10-20T01:47:49.884Z,6.38
2022-10-20T01:48:51.469Z,7.15
2022-10-20T01:49:54.457Z,6.88
2022-10-20T01:50:56.320Z,7.88
2022-10-20T01:51:59.027Z,6.15
2022-10-20T01:53:00.910Z,7.72
2022-10-20T01:54:03.513Z,5.50
2022-10-20T01:55:12.157Z,6.32
2022-10-20T01:56:17.692Z,8.57
2022-10-20T01:57:29.805Z,6.10
2022-10-20T01:58:54.299Z,7.43
2022-10-20T02:00:03.088Z,8.10
2022-10-20T02:01:11.647Z,5.85
2022-10-20T02:02:25.938Z,7.70
2022-10-20T02:03:37.835Z,6.07
2022-10-20T02:04:51.877Z,7.93
2022-10-20T02:06:04.245Z,5.93
2022-10-20T02:07:09.242Z,5.85
2022-10-20T02:08:14.573Z,7.95
2022-10-20T02:09:20.262Z,6.63
2022-10-20T02:10:25.534Z,6.10
2022-10-20T02:11:31.893Z,7.15
2022-10-20T02:12:37.193Z,8.77
2022-10-20T02:13:39.746Z,6.45
2022-10-20T02:14:44.197Z,9.20
2022-10-20T02:15:48.616Z,7.47
2022-10-20T02:16:53.928Z,7.80
2022-10-20T02:17:59.294Z,6.82
2022-10-20T02:19:02.630Z,6.47
2022-10-20T02:20:06.266Z,7.88
2022-10-20T02:21:09.228Z,8.70
2022-10-20T02:22:12.681Z,6.88
2022-10-20T02:23:15.319Z,6.57
2022-10-20T02:24:17.723Z,8.38
2022-10-20T02:25:21.126Z,8.73
2022-10-20T02:26:25.371Z,7.00
2022-10-20T02:27:30.723Z,9.20
2022-10-20T02:28:34.288Z,6.38
2022-10-20T02:29:39.343Z,9.73
2022-10-20T02:30:42.917Z,8.48
2022-10-20T02:31:46.133Z,8.35
2022-10-20T02:32:49.605Z,9.57
2022-10-20T02:33:52.815Z,7.40
2022-10-20T02:34:54.374Z,8.65
2022-10-20T02:35:59.000Z,7.20
2022-10-20T02:37:00.593Z,8.13
2022-10-20T02:38:03.667Z,7.22
2022-10-20T02:39:05.446Z,7.22
2022-10-20T02:40:09.136Z,7.15
2022-10-20T02:41:11.123Z,10.57
2022-10-20T02:42:13.647Z,7.93
2022-10-20T02:43:15.544Z,9.85
2022-10-20T02:44:18.069Z,9.43
2022-10-20T02:45:19.920Z,7.85
2022-10-20T02:46:24.191Z,6.53
2022-10-20T02:47:25.722Z,11.68
2022-10-20T02:48:28.229Z,8.98
2022-10-20T02:49:29.828Z,8.40
2022-10-20T02:50:35.466Z,8.98
2022-10-20T02:51:37.053Z,10.00
2022-10-20T02:52:40.422Z,8.38
2022-10-20T02:53:42.037Z,9.32
2022-10-20T02:54:44.536Z,10.95
2022-10-20T02:55:46.117Z,7.97
2022-10-20T02:56:48.697Z,8.38
2022-10-20T02:57:51.180Z,10.68
2022-10-20T02:58:54.056Z,9.55
2022-10-20T02:59:55.724Z,8.15
2022-10-20T03:00:58.270Z,8.25
2022-10-20T03:02:01.276Z,9.90
2022-10-20T03:03:04.706Z,10.18
2022-10-20T03:04:06.281Z,7.68
2022-10-20T03:05:09.569Z,11.15
2022-10-20T03:06:12.866Z,8.57
2022-10-20T03:07:15.682Z,11.32
2022-10-20T03:08:17.316Z,9.70
2022-10-20T03:09:19.845Z,9.02
2022-10-20T03:10:21.682Z,9.52
2022-10-20T03:11:24.453Z,10.85
2022-10-20T03:12:28.854Z,11.30
2022-10-20T03:13:34.038Z,8.48
2022-10-20T03:14:35.571Z,8.73
2022-10-20T03:15:38.637Z,10.23
2022-10-20T03:16:40.190Z,10.48
2022-10-20T03:17:44.085Z,10.00
2022-10-20T03:18:45.669Z,9.40
2022-10-20T03:19:48.170Z,11.93
2022-10-20T03:20:50.943Z,9.85
2022-10-20T03:21:53.538Z,9.50
2022-10-20T03:22:55.125Z,9.95
2022-10-20T03:23:57.662Z,10.32
2022-10-20T03:24:59.215Z,8.95
2022-10-20T03:26:06.023Z,9.43
2022-10-20T03:27:07.577Z,12.75
2022-10-20T03:28:10.132Z,10.93
2022-10-20T03:29:11.816Z,12.32
2022-10-20T03:30:14.333Z,12.80
2022-10-20T03:31:15.897Z,12.00
2022-10-20T03:32:18.518Z,11.18
2022-10-20T03:33:21.466Z,8.90
2022-10-20T03:34:24.075Z,11.60
2022-10-20T03:35:25.716Z,11.25
2022-10-20T03:36:28.341Z,11.40
2022-10-20T03:37:29.902Z,11.77
2022-10-20T03:38:32.465Z,9.82
2022-10-20T03:39:34.011Z,9.05
2022-10-20T03:40:36.544Z,9.80
2022-10-20T03:41:38.129Z,10.38
2022-10-20T03:42:40.663Z,10.05
2022-10-20T03:43:42.267Z,10.68
2022-10-20T03:44:45.879Z,8.52
2022-10-20T03:45:47.449Z,10.73
2022-10-20T03:46:49.958Z,8.80
2022-10-20T03:47:51.585Z,11.60
2022-10-20T03:48:55.434Z,9.98
2022-10-20T03:49:56.982Z,10.98
2022-10-20T03:51:00.832Z,12.20
2022-10-20T03:52:02.419Z,11.68
2022-10-20T03:53:04.938Z,14.13
2022-10-20T03:54:06.477Z,12.07
2022-10-20T03:55:09.718Z,11.50
2022-10-20T03:56:15.901Z,10.57
2022-10-20T03:57:18.466Z,10.68
2022-10-20T03:58:20.182Z,10.63
2022-10-20T03:59:24.492Z,12.27
2022-10-20T04:00:28.363Z,11.07
2022-10-20T04:01:32.609Z,12.20
2022-10-20T04:02:35.972Z,11.18
2022-10-20T04:03:38.635Z,12.07
2022-10-20T04:04:42.480Z,10.23
2022-10-20T04:05:44.055Z,10.85
2022-10-20T04:06:46.738Z,10.52
2022-10-20T04:07:48.303Z,10.52
2022-10-20T04:08:50.911Z,11.35
2022-10-20T04:09:52.446Z,8.35
2022-10-20T04:10:54.916Z,11.93
2022-10-20T04:11:56.515Z,11.43
2022-10-20T04:12:59.178Z,10.65
2022-10-20T04:14:00.724Z,11.68
2022-10-20T04:15:03.395Z,11.30
2022-10-20T04:16:05.460Z,10.15
2022-10-20T04:17:08.017Z,11.13
2022-10-20T04:18:09.655Z,10.50
2022-10-20T04:19:14.931Z,11.07
2022-10-20T04:20:17.869Z,11.90
2022-10-20T04:21:20.432Z,10.85
2022-10-20T04:22:22.054Z,10.57
2022-10-20T04:23:24.560Z,12.68
2022-10-20T04:24:26.211Z,10.98
2022-10-20T04:25:28.722Z,10.23
2022-10-20T04:26:30.327Z,12.15
2022-10-20T04:27:33.002Z,11.93
2022-10-20T04:28:34.666Z,11.27
2022-10-20T04:29:37.333Z,10.98
2022-10-20T04:30:38.963Z,10.68
2022-10-20T04:31:45.314Z,12.25
2022-10-20T04:32:49.760Z,10.60
2022-10-20T04:33:52.274Z,11.25
2022-10-20T04:34:53.809Z,11.73
2022-10-20T04:35:59.701Z,11.80
2022-10-20T04:37:01.245Z,12.90
2022-10-20T04:38:03.891Z,9.43
2022-10-20T04:39:06.313Z,13.25
2022-10-20T04:40:09.630Z,9.77
2022-10-20T04:41:11.503Z,11.00
2022-10-20T04:42:14.031Z,13.35
2022-10-20T04:43:15.568Z,11.88
2022-10-20T04:44:18.332Z,12.80
2022-10-20T04:45:19.886Z,11.27
2022-10-20T04:46:22.384Z,10.25
2022-10-20T04:47:23.942Z,10.77
2022-10-20T04:48:26.457Z,12.95
2022-10-20T04:49:28.590Z,10.88
2022-10-20T04:50:31.078Z,9.95
2022-10-20T04:51:33.987Z,12.40
2022-10-20T04:52:36.537Z,12.40
2022-10-20T04:53:38.138Z,14.23
2022-10-20T04:54:40.678Z,11.95
2022-10-20T04:55:42.220Z,12.68
2022-10-20T04:56:44.767Z,12.13
2022-10-20T04:57:46.422Z,11.07
2022-10-20T04:58:49.533Z,11.80
2022-10-20T04:59:52.051Z,10.55
2022-10-20T05:00:53.854Z,10.55
2022-10-20T05:01:56.422Z,11.60
2022-10-20T05:03:01.023Z,11.52
2022-10-20T05:04:03.660Z,12.95
2022-10-20T05:05:06.170Z,16.55
2022-10-20T05:06:10.364Z,9.48
2022-10-20T05:07:13.432Z,12.02
2022-10-20T05:08:16.288Z,12.07
2022-10-20T05:09:17.899Z,12.23
2022-10-20T05:10:20.718Z,9.00
2022-10-20T05:11:23.561Z,11.60
2022-10-20T05:12:27.798Z,11.30
2022-10-20T05:13:29.413Z,13.85
2022-10-20T05:14:31.980Z,10.60
2022-10-20T05:15:33.494Z,11.32
2022-10-20T05:16:36.122Z,11.57
2022-10-20T05:17:37.670Z,10.75
2022-10-20T05:18:40.831Z,12.68
2022-10-20T05:19:42.392Z,12.02
2022-10-20T05:21:07.389Z,11.93
2022-10-20T05:22:07.431Z,10.73
2022-10-20T05:23:10.412Z,12.88
2022-10-20T05:24:20.809Z,10.23
2022-10-20T05:25:38.961Z,10.82
2022-10-20T05:26:41.481Z,13.52
2022-10-20T05:27:42.983Z,11.85
2022-10-20T05:28:46.904Z,10.25
2022-10-20T05:29:48.493Z,14.55
2022-10-20T05:30:51.071Z,10.73
2022-10-20T05:31:53.603Z,12.18
2022-10-20T05:32:55.140Z,12.80
2022-10-20T05:33:58.228Z,9.32
2022-10-20T05:34:59.802Z,14.73
2022-10-20T05:36:07.971Z,11.02
2022-10-20T05:37:10.619Z,11.40
2022-10-20T05:38:13.588Z,12.57
2022-10-20T05:39:16.093Z,11.90
2022-10-20T05:40:17.673Z,12.60
2022-10-20T05:41:21.291Z,14.60
2022-10-20T05:42:23.879Z,11.43
2022-10-20T05:43:25.873Z,11.05
2022-10-20T05:44:28.451Z,11.25
2022-10-20T05:45:30.038Z,10.80
2022-10-20T05:46:34.130Z,9.98
2022-10-20T05:47:35.838Z,11.15
2022-10-20T05:48:42.829Z,13.02
2022-10-20T05:49:45.787Z,11.23
2022-10-20T05:50:47.576Z,10.05
2022-10-20T05:51:50.178Z,11.80
2022-10-20T05:52:51.741Z,13.00
2022-10-20T05:53:57.506Z,12.88
2022-10-20T05:54:59.517Z,14.20
2022-10-20T05:56:04.423Z,14.55
2022-10-20T05:57:07.016Z,12.68
2022-10-20T05:58:08.661Z,15.32
2022-10-20T05:59:12.323Z,12.43
2022-10-20T06:00:15.842Z,13.07
2022-10-20T06:01:21.509Z,12.77
2022-10-20T06:02:23.205Z,9.02
2022-10-20T06:03:28.279Z,12.55
2022-10-20T06:04:31.949Z,12.15
2022-10-20T06:05:33.713Z,12.48
2022-10-20T06:06:37.051Z,10.93
2022-10-20T06:07:38.600Z,13.02
2022-10-20T06:08:41.171Z,9.02
2022-10-20T06:09:45.143Z,11.40
2022-10-20T06:10:46.687Z,11.20
2022-10-20T06:11:49.753Z,10.13
2022-10-20T06:12:51.372Z,9.45
2022-10-20T06:13:54.036Z,11.73
2022-10-20T06:14:56.518Z,11.02
2022-10-20T06:16:02.176Z,11.43
2022-10-20T06:17:04.765Z,9.98
2022-10-20T06:18:06.409Z,10.52
2022-10-20T06:19:08.926Z,11.00
2022-10-20T06:20:10.675Z,12.82
2022-10-20T06:21:15.768Z,11.00
2022-10-20T06:22:17.414Z,10.10
2022-10-20T06:23:23.580Z,12.10
2022-10-20T06:24:26.833Z,10.68
2022-10-20T06:25:29.738Z,11.35
2022-10-20T06:26:33.740Z,10.63
2022-10-20T06:27:35.310Z,9.68
2022-10-20T06:28:38.821Z,13.05
2022-10-20T06:29:41.332Z,10.80
2022-10-20T06:30:42.860Z,12.02
2022-10-20T06:31:47.307Z,11.05
2022-10-20T06:32:54.588Z,9.13
2022-10-20T06:33:56.644Z,9.63
2022-10-20T06:34:59.164Z,12.13
2022-10-20T06:36:01.022Z,10.52
2022-10-20T06:37:03.550Z,10.20
2022-10-20T06:38:05.073Z,10.60
2022-10-20T06:39:08.626Z,7.55
2022-10-20T06:40:10.986Z,9.98
2022-10-20T06:41:18.571Z,8.57
2022-10-20T06:42:20.127Z,11.65
2022-10-20T06:43:22.764Z,8.68
2022-10-20T06:44:24.461Z,8.75
2022-10-20T06:45:26.984Z,13.40
2022-10-20T06:46:30.337Z,9.93
2022-10-20T06:47:32.889Z,9.27
2022-10-20T06:48:35.234Z,9.07
2022-10-20T06:49:37.757Z,10.45
2022-10-20T06:50:39.573Z,9.10
2022-10-20T06:51:42.349Z,9.50
2022-10-20T06:52:43.903Z,8.40
2022-10-20T06:53:47.032Z,7.10
2022-10-20T06:54:48.602Z,9.55
2022-10-20T06:55:56.772Z,8.50
2022-10-20T06:57:00.644Z,10.35
2022-10-20T06:58:02.172Z,11.25
2022-10-20T06:59:05.322Z,8.85
2022-10-20T07:00:08.477Z,9.63
2022-10-20T07:01:16.186Z,9.57
2022-10-20T07:02:18.725Z,10.32
2022-10-20T07:03:20.253Z,9.98
2022-10-20T07:04:22.722Z,8.52
2022-10-20T07:05:24.256Z,13.10
2022-10-20T07:06:28.693Z,8.30
2022-10-20T07:07:31.347Z,9.02
2022-10-20T07:08:34.880Z,10.45
2022-10-20T07:09:37.444Z,8.63
2022-10-20T07:10:39.012Z,9.38
2022-10-20T07:11:41.860Z,9.52
2022-10-20T07:12:44.748Z,11.63
2022-10-20T07:13:49.099Z,9.20
2022-10-20T07:14:51.587Z,8.43
2022-10-20T07:15:53.620Z,9.15
2022-10-20T07:16:56.147Z,7.72
2022-10-20T07:17:57.682Z,10.35
2022-10-20T07:19:00.960Z,12.13
2022-10-20T07:20:02.569Z,9.65
2022-10-20T07:21:08.191Z,7.65
2022-10-20T07:22:13.539Z,9.15
2022-10-20T07:23:15.140Z,8.98
2022-10-20T07:24:17.784Z,8.25
2022-10-20T07:25:21.627Z,8.20
2022-10-20T07:26:25.816Z,8.80
2022-10-20T07:27:27.427Z,8.00
2022-10-20T07:28:31.434Z,10.18
2022-10-20T07:30:41.751Z,11.88
2022-10-20T07:31:45.992Z,7.57
2022-10-20T07:32:47.599Z,7.95
2022-10-20T07:34:07.096Z,11.63
2022-10-20T07:35:15.953Z,9.77
2022-10-20T07:36:19.842Z,10.93
2022-10-20T07:37:21.374Z,9.98
2022-10-20T07:38:23.873Z,9.02
2022-10-20T07:39:28.465Z,9.70
2022-10-20T07:40:30.417Z,8.18
2022-10-20T07:41:33.393Z,6.93
2022-10-20T07:42:35.337Z,6.47
2022-10-20T07:43:40.207Z,8.93
2022-10-20T07:44:42.704Z,6.63
2022-10-20T07:45:44.367Z,10.68
2022-10-20T07:46:46.883Z,9.90
2022-10-20T07:47:48.419Z,7.97
2022-10-20T07:48:50.980Z,11.40
2022-10-20T07:49:53.553Z,9.52
2022-10-20T07:50:55.120Z,8.80
2022-10-20T07:51:57.714Z,7.85
2022-10-20T07:52:59.244Z,8.70
2022-10-20T07:54:03.105Z,12.02
2022-10-20T07:55:23.858Z,10.32
2022-10-20T07:56:29.546Z,9.98
2022-10-20T07:57:32.878Z,7.28
2022-10-20T07:58:34.458Z,7.85
2022-10-20T07:59:38.359Z,6.20
2022-10-20T08:01:47.578Z,8.32
2022-10-20T08:02:50.243Z,8.48
2022-10-20T08:03:51.917Z,6.97
2022-10-20T08:04:54.455Z,7.40
2022-10-20T08:05:55.995Z,7.65
2022-10-20T08:06:58.562Z,8.65
2022-10-20T08:08:00.811Z,10.27
2022-10-20T08:09:03.358Z,8.07
2022-10-20T08:10:05.730Z,7.20
2022-10-20T08:11:10.465Z,8.98
2022-10-20T08:12:12.324Z,7.18
2022-10-20T08:13:14.852Z,8.18
2022-10-20T08:14:16.403Z,9.13
2022-10-20T08:15:20.429Z,12.25
2022-10-20T08:16:29.408Z,10.45
2022-10-20T08:17:32.115Z,8.68
2022-10-20T08:18:44.106Z,8.68
2022-10-20T08:20:40.416Z,7.35
2022-10-20T08:21:18.485Z,7.53
2022-10-20T08:22:21.095Z,8.05
2022-10-20T08:23:22.636Z,7.57
2022-10-20T08:24:25.156Z,8.70
2022-10-20T08:25:26.931Z,8.98
2022-10-20T08:26:29.894Z,6.45
2022-10-20T08:27:32.420Z,9.15
2022-10-20T08:28:34.331Z,7.07
2022-10-20T08:29:37.436Z,11.93
2022-10-20T08:30:41.307Z,7.18
2022-10-20T08:31:43.582Z,6.57
2022-10-20T08:32:46.105Z,6.85
2022-10-20T08:33:52.338Z,6.82
2022-10-20T08:34:55.280Z,8.63
2022-10-20T08:36:01.348Z,8.15
2022-10-20T08:37:03.984Z,7.15
2022-10-20T08:38:06.006Z,6.65
2022-10-20T08:39:08.568Z,7.82
2022-10-20T08:40:15.045Z,11.88
2022-10-20T08:41:19.169Z,11.45
2022-10-20T08:42:22.310Z,6.95
2022-10-20T08:43:24.090Z,9.02
2022-10-20T08:44:29.268Z,8.15
2022-10-20T08:45:33.684Z,7.25
2022-10-20T08:46:41.595Z,9.25
2022-10-20T08:47:44.762Z,7.03
2022-10-20T08:48:47.898Z,7.05
2022-10-20T08:49:49.547Z,8.93
2022-10-20T08:50:53.636Z,6.57
2022-10-20T08:51:56.331Z,7.78
2022-10-20T08:53:00.648Z,9.60
2022-10-20T08:54:02.828Z,10.30
2022-10-20T08:55:07.098Z,6.13
2022-10-20T08:56:13.282Z,6.70
2022-10-20T08:57:20.677Z,6.63
2022-10-20T08:58:25.045Z,6.40
2022-10-20T08:59:29.060Z,8.25
2022-10-20T09:00:32.223Z,10.27
2022-10-20T09:01:36.246Z,10.40
2022-10-20T09:02:39.621Z,12.48
2022-10-20T09:03:42.703Z,7.78
2022-10-20T09:04:48.687Z,7.85
2022-10-20T09:05:56.529Z,11.30
2022-10-20T09:07:00.660Z,7.75
2022-10-20T09:08:03.382Z,7.70
2022-10-20T09:09:04.994Z,8.32
2022-10-20T09:10:17.492Z,6.15
2022-10-20T09:11:22.548Z,8.32
2022-10-20T09:12:27.507Z,8.80
2022-10-20T09:13:34.787Z,8.45
2022-10-20T09:14:37.002Z,7.57
2022-10-20T09:15:39.774Z,7.95
2022-10-20T09:16:59.091Z,7.28
2022-10-20T09:18:06.502Z,6.85
2022-10-20T09:19:16.476Z,8.38
2022-10-20T09:20:22.487Z,7.53
2022-10-20T09:21:25.343Z,6.95
2022-10-20T09:22:33.449Z,8.48
2022-10-20T09:23:42.412Z,8.13
2022-10-20T09:24:44.584Z,7.32
2022-10-20T09:25:48.430Z,7.05
2022-10-20T09:26:59.650Z,8.52
2022-10-20T09:28:02.750Z,8.88
2022-10-20T09:29:13.338Z,7.43
2022-10-20T09:30:18.774Z,8.88
2022-10-20T09:31:23.745Z,7.35
2022-10-20T09:32:48.625Z,8.77
2022-10-20T09:33:52.705Z,8.32
2022-10-20T09:35:12.919Z,9.73
2022-10-20T09:36:18.062Z,7.40
2022-10-20T09:37:19.911Z,7.15
2022-10-20T09:38:24.961Z,7.55
2022-10-20T09:39:28.629Z,8.65
2022-10-20T09:40:31.828Z,8.63
2022-10-20T09:41:35.818Z,9.68
2022-10-20T09:42:42.076Z,10.57
2022-10-20T09:43:52.199Z,8.38
2022-10-20T09:44:58.579Z,9.30
2022-10-20T09:46:05.367Z,9.25
2022-10-20T09:47:12.639Z,7.65
2022-10-20T09:48:20.427Z,7.05
2022-10-20T09:49:26.277Z,7.68
2022-10-20T09:50:31.079Z,7.88
2022-10-20T09:51:33.884Z,8.30
2022-10-20T09:52:47.190Z,7.40
2022-10-20T09:53:53.624Z,10.10
2022-10-20T09:55:00.800Z,9.15
2022-10-20T09:56:03.467Z,6.50
2022-10-20T09:57:07.099Z,10.45
2022-10-20T09:58:17.639Z,10.23
2022-10-20T09:59:22.114Z,8.85
2022-10-20T10:00:36.910Z,10.65
2022-10-20T10:01:53.592Z,8.50
2022-10-20T10:03:23.572Z,8.05
2022-10-20T10:04:34.513Z,8.10
2022-10-20T10:05:37.013Z,8.15
2022-10-20T10:06:44.087Z,8.25
2022-10-20T10:07:45.749Z,7.68
2022-10-20T10:08:48.594Z,7.38
2022-10-20T10:09:57.019Z,12.32
2022-10-20T10:11:01.284Z,6.95
2022-10-20T10:12:05.799Z,10.13
2022-10-20T10:13:23.933Z,7.25
2022-10-20T10:14:27.970Z,9.00
2022-10-20T10:15:31.414Z,8.73
2022-10-20T10:16:41.714Z,12.30
2022-10-20T10:17:43.617Z,9.82
2022-10-20T10:18:49.415Z,7.97
2022-10-20T10:19:55.616Z,8.68
2022-10-20T10:21:04.365Z,10.68
2022-10-20T10:22:08.166Z,9.95
2022-10-20T10:23:19.067Z,8.30
2022-10-20T10:24:46.369Z,8.45
2022-10-20T10:25:48.248Z,11.23
2022-10-20T10:26:55.047Z,6.75
2022-10-20T10:27:58.386Z,10.75
2022-10-20T10:29:01.101Z,7.53
2022-10-20T10:30:27.604Z,8.35
2022-10-20T10:31:30.218Z,7.93
2022-10-20T10:32:32.718Z,11.38
2022-10-20T10:33:34.387Z,7.70
2022-10-20T10:35:02.476Z,8.50
2022-10-20T10:36:07.059Z,7.57
2022-10-20T10:37:11.716Z,8.18
2022-10-20T10:38:13.962Z,7.15
2022-10-20T10:39:16.709Z,12.02
2022-10-20T10:40:21.383Z,9.30
2022-10-20T10:41:30.578Z,11.23
2022-10-20T10:42:56.173Z,16.40
2022-10-20T10:44:00.600Z,11.27
2022-10-20T10:45:10.269Z,8.57
2022-10-20T10:46:17.508Z,8.80
2022-10-20T10:47:42.188Z,10.23
2022-10-20T10:48:55.020Z,8.07
2022-10-20T10:50:03.694Z,10.40
2022-10-20T10:51:10.140Z,9.32
2022-10-20T10:52:22.432Z,10.18
2022-10-20T10:53:32.509Z,9.30
2022-10-20T10:54:46.378Z,11.02
2022-10-20T10:55:54.540Z,9.98
2022-10-20T10:57:00.622Z,8.30
2022-10-20T10:58:08.982Z,9.43
2022-10-20T10:59:13.788Z,10.48
2022-10-20T11:00:18.554Z,9.38
2022-10-20T11:01:32.507Z,8.70
2022-10-20T11:02:52.230Z,9.18
2022-10-20T11:04:05.661Z,7.63
2022-10-20T11:05:48.984Z,10.50
2022-10-20T11:06:58.267Z,8.88
2022-10-20T11:08:09.778Z,9.90
2022-10-20T11:09:22.532Z,10.40
2022-10-20T11:10:30.263Z,11.82
2022-10-20T11:11:43.682Z,8.77
2022-10-20T11:12:58.514Z,18.08
2022-10-20T11:14:12.302Z,7.90
2022-10-20T11:15:30.557Z,8.75
2022-10-20T11:16:38.654Z,11.50
2022-10-20T11:17:48.680Z,8.48
2022-10-20T11:19:08.990Z,9.10
2022-10-20T11:20:31.073Z,9.27
2022-10-20T11:21:37.087Z,7.43
2022-10-20T11:22:44.997Z,8.15
2022-10-20T11:23:58.728Z,9.05
2022-10-20T11:25:04.318Z,8.93
2022-10-20T11:26:14.135Z,11.25
2022-10-20T11:27:19.349Z,12.32
2022-10-20T11:28:29.789Z,6.80
2022-10-20T11:29:34.335Z,9.70
2022-10-20T11:30:36.856Z,9.38
2022-10-20T11:31:42.326Z,8.18
2022-10-20T11:32:48.905Z,7.22
2022-10-20T11:33:54.805Z,8.82
2022-10-20T11:35:02.193Z,9.80
2022-10-20T11:36:10.917Z,9.85
2022-10-20T11:37:19.238Z,9.77
2022-10-20T11:38:24.950Z,9.40
2022-10-20T11:39:35.760Z,7.20
2022-10-20T11:40:39.925Z,10.18
2022-10-20T11:41:46.866Z,7.35
2022-10-20T11:42:54.570Z,10.80
2022-10-20T11:44:00.922Z,8.70
2022-10-20T11:45:10.393Z,8.13
2022-10-20T11:46:14.915Z,8.70
2022-10-20T11:47:19.230Z,9.98
2022-10-20T11:48:24.971Z,9.10
2022-10-20T11:49:34.170Z,8.05
2022-10-20T11:50:35.913Z,9.45
2022-10-20T11:51:52.394Z,8.65
2022-10-20T11:53:04.178Z,8.73
2022-10-20T11:54:45.490Z,6.63
2022-10-20T11:56:26.699Z,8.38
2022-10-20T11:57:34.817Z,8.05
2022-10-20T11:59:01.557Z,9.77
2022-10-20T12:00:13.779Z,7.65
2022-10-20T12:01:29.096Z,6.57
2022-10-20T12:03:06.412Z,7.70
2022-10-20T12:04:47.233Z,11.15
2022-10-20T12:06:10.818Z,7.72
2022-10-20T12:07:32.673Z,5.68
2022-10-20T12:08:45.534Z,8.30
2022-10-20T12:10:07.076Z,9.32
2022-10-20T12:11:13.926Z,6.03
2022-10-20T12:12:19.023Z,8.73
2022-10-20T12:13:34.792Z,8.20
2022-10-20T12:14:40.015Z,11.27
2022-10-20T12:15:46.848Z,9.85
2022-10-20T12:17:14.758Z,7.20
2022-10-20T12:18:25.244Z,10.82
2022-10-20T12:19:28.197Z,8.43
2022-10-20T12:20:51.910Z,11.55
2022-10-20T12:21:55.807Z,8.00
2022-10-20T12:22:59.096Z,8.55
2022-10-20T12:24:05.662Z,9.93
2022-10-20T12:25:25.968Z,9.43
2022-10-20T12:26:59.029Z,9.85
2022-10-20T12:30:01.866Z,8.52
2022-10-20T12:31:04.513Z,11.32
2022-10-20T12:32:26.581Z,12.93
2022-10-20T12:33:41.529Z,8.98
2022-10-20T12:34:43.103Z,9.20
2022-10-20T12:36:01.303Z,9.00
2022-10-20T12:37:08.637Z,13.20
2022-10-20T12:38:16.914Z,8.38
2022-10-20T12:39:21.509Z,8.88
2022-10-20T12:40:25.907Z,10.30
2022-10-20T12:41:32.776Z,9.82
2022-10-20T12:42:37.924Z,13.90
2022-10-20T12:43:50.156Z,9.00
2022-10-20T12:44:52.862Z,10.30
2022-10-20T12:45:58.491Z,10.98
2022-10-20T12:47:05.791Z,7.05
2022-10-20T12:48:08.481Z,10.90
2022-10-20T12:49:13.912Z,8.70
2022-10-20T12:50:27.198Z,15.25
2022-10-20T12:51:37.379Z,9.63
2022-10-20T12:52:42.018Z,8.73
2022-10-20T12:53:53.792Z,9.52
2022-10-20T12:54:59.508Z,9.00
2022-10-20T12:56:05.288Z,11.75
2022-10-20T12:57:27.133Z,12.18
2022-10-20T12:58:31.895Z,10.90
2022-10-20T12:59:39.400Z,9.23
2022-10-20T13:01:02.096Z,11.02
2022-10-20T13:02:35.493Z,12.05
2022-10-20T13:03:46.803Z,10.50
2022-10-20T13:04:57.700Z,9.07
2022-10-20T13:06:00.512Z,10.95
2022-10-20T13:07:02.373Z,9.98
2022-10-20T13:08:32.762Z,8.35
2022-10-20T13:09:54.659Z,14.25
2022-10-20T13:10:58.365Z,10.93
2022-10-20T13:12:03.978Z,12.05
2022-10-20T13:13:44.562Z,13.80
2022-10-20T13:14:53.272Z,9.00
2022-10-20T13:15:55.997Z,10.25
2022-10-20T13:17:05.398Z,9.43
2022-10-20T13:18:16.518Z,12.18
2022-10-20T13:19:20.666Z,12.60
2022-10-20T13:20:27.075Z,10.48
2022-10-20T13:21:31.533Z,12.50
2022-10-20T13:22:46.949Z,13.48
2022-10-20T13:23:55.125Z,11.25
2022-10-20T13:24:59.962Z,12.27
2022-10-20T13:26:14.250Z,11.65
2022-10-20T13:27:16.589Z,13.85
2022-10-20T13:28:22.118Z,12.00
2022-10-20T13:29:27.688Z,12.18
2022-10-20T13:30:30.695Z,10.82
2022-10-20T13:31:35.402Z,10.63
2022-10-20T13:32:53.894Z,14.18
2022-10-20T13:34:11.542Z,11.60
2022-10-20T13:35:21.019Z,10.68
2022-10-20T13:36:32.217Z,10.38
2022-10-20T13:37:47.735Z,10.18
2022-10-20T13:38:55.024Z,11.05
2022-10-20T13:40:04.988Z,13.32
2022-10-20T13:41:14.463Z,9.80
2022-10-20T13:42:24.452Z,10.93
2022-10-20T13:43:31.895Z,12.65
2022-10-20T13:44:40.038Z,9.75
2022-10-20T13:45:56.801Z,11.60
2022-10-20T13:47:03.373Z,11.93
2022-10-20T13:48:15.809Z,10.40
2022-10-20T13:49:38.716Z,10.07
2022-10-20T13:50:49.063Z,12.10
2022-10-20T13:51:53.095Z,12.68
2022-10-20T13:52:58.154Z,15.35
2022-10-20T13:54:02.596Z,14.05
2022-10-20T13:55:07.072Z,13.20
2022-10-20T13:56:20.664Z,12.95
2022-10-20T13:57:26.736Z,11.55
2022-10-20T13:58:29.477Z,12.35
2022-10-20T13:59:32.049Z,10.75
2022-10-20T14:00:36.026Z,10.80
2022-10-20T14:01:37.627Z,14.95
2022-10-20T14:02:40.406Z,12.18
2022-10-20T14:03:44.440Z,12.38
2022-10-20T14:04:46.973Z,12.80
2022-10-20T14:05:48.538Z,16.30
2022-10-20T14:06:51.068Z,10.93
2022-10-20T14:07:53.157Z,16.55
2022-10-20T14:08:56.660Z,12.48
2022-10-20T14:09:58.273Z,10.55
2022-10-20T14:11:04.533Z,14.38
2022-10-20T14:12:08.345Z,13.02
2022-10-20T14:13:14.703Z,12.73
2022-10-20T14:14:18.892Z,18.15
2022-10-20T14:15:34.097Z,15.93
2022-10-20T14:16:37.584Z,13.27
2022-10-20T14:17:42.989Z,14.25
2022-10-20T14:18:44.569Z,13.30
2022-10-20T14:19:47.496Z,12.32
2022-10-20T14:20:59.025Z,11.55
2022-10-20T14:22:12.527Z,10.52
2022-10-20T14:23:14.119Z,13.25
2022-10-20T14:24:22.542Z,13.15
2022-10-20T14:25:24.525Z,17.13
2022-10-20T14:26:29.791Z,13.95
2022-10-20T14:27:32.744Z,16.55
2022-10-20T14:28:36.702Z,16.33